Terminal Aerodrome Forecast
Issued by NWS

Home | Current Version | Previous Version | Text Only | Print | Product List | Glossary On
Versions: 1 2 3 4 5 6 7 8 9 10 11 12 13 14 15 16 17 18 19 20 21 22 23 24 25 26 27 28 29 30 31 32 33 34 35 36 37 38
000
FTUS45 KGJT 250525
TAFRIL
TAF
KRIL 250525Z 2506/2606 09012KT P6SM SCT110 BKN180
     FM250700 08003KT P6SM SCT120
     FM251800 34005KT P6SM SCT120 BKN150
     FM252000 17009KT P6SM VCTS BKN100CB
     FM260200 12009KT P6SM VCTS SCT100CB BKN140=

USA.gov is the U.S. government's official web portal to all federal, state and local government web resources and services.